createdAt,value
2019-01-05T00:05:06.932Z,8.17
2019-01-05T00:08:03.677Z,8.37
2019-01-05T00:11:09.848Z,8.83
2019-01-05T00:14:11.097Z,8.30
2019-01-05T00:20:56.097Z,7.40
2019-01-05T00:23:58.864Z,8.57
2019-01-05T00:31:10.818Z,7.70
2019-01-05T00:37:14.924Z,8.87
2019-01-05T00:40:20.879Z,8.27
2019-01-05T00:43:28.680Z,8.60
2019-01-05T00:46:26.649Z,8.53
2019-01-05T00:53:13.183Z,9.00
2019-01-05T00:56:35.254Z,10.50
2019-01-05T00:59:52.453Z,8.13
2019-01-05T01:03:03.819Z,8.80
2019-01-05T01:05:54.834Z,8.07
2019-01-05T01:09:03.043Z,8.97
2019-01-05T01:11:32.749Z,10.20
2019-01-05T01:15:00.619Z,10.47
2019-01-05T01:21:13.986Z,9.57
2019-01-05T01:24:19.735Z,9.40
2019-01-05T01:31:24.889Z,10.33
2019-01-05T01:38:36.822Z,9.13
2019-01-05T01:45:21.725Z,8.67
2019-01-05T01:48:22.958Z,10.00
2019-01-05T01:51:17.849Z,9.17
2019-01-05T01:58:05.818Z,9.83
2019-01-05T02:04:44.770Z,10.43
2019-01-05T02:07:48.345Z,9.40
2019-01-05T02:10:50.124Z,10.20
2019-01-05T02:13:50.757Z,9.83
2019-01-05T02:17:08.183Z,10.93
2019-01-05T02:24:18.873Z,10.50
2019-01-05T02:31:14.618Z,9.80
2019-01-05T02:35:13.828Z,9.43
2019-01-05T02:38:49.901Z,10.53
2019-01-05T02:42:27.314Z,10.37
2019-01-05T02:45:56.905Z,10.50
2019-01-05T02:49:35.831Z,10.17
2019-01-05T02:53:13.246Z,11.17
2019-01-05T02:56:34.868Z,10.00
2019-01-05T03:00:27.702Z,11.30
2019-01-05T03:04:13.203Z,10.20
2019-01-05T03:07:49.872Z,10.23
2019-01-05T03:11:26.972Z,11.03
2019-01-05T03:15:07.735Z,10.47
2019-01-05T03:18:48.369Z,10.57
2019-01-05T03:25:46.708Z,10.23
2019-01-05T03:29:28.914Z,10.90
2019-01-05T03:37:18.127Z,10.47
2019-01-05T03:40:54.176Z,10.97
2019-01-05T03:44:28.803Z,10.53
2019-01-05T03:51:29.877Z,10.63
2019-01-05T03:58:28.099Z,10.67
2019-01-05T04:02:04.355Z,10.17
2019-01-05T04:12:52.946Z,10.67
2019-01-05T04:16:33.923Z,10.63
2019-01-05T04:20:20.364Z,12.53
2019-01-05T04:23:45.846Z,11.43
2019-01-05T04:27:33.367Z,10.00
2019-01-05T04:31:18.866Z,13.27
2019-01-05T04:34:55.544Z,16.07
2019-01-05T04:38:32.376Z,16.23
2019-01-05T04:42:09.932Z,10.90
2019-01-05T04:49:44.796Z,11.37
2019-01-05T04:53:46.266Z,10.70
2019-01-05T04:57:12.696Z,11.17
2019-01-05T05:01:04.119Z,11.30
2019-01-05T05:04:38.953Z,10.43
2019-01-05T05:08:06.212Z,11.40
2019-01-05T05:15:35.527Z,11.13
2019-01-05T05:18:49.370Z,12.17
2019-01-05T05:22:36.206Z,10.70
2019-01-05T05:29:58.978Z,10.97
2019-01-05T05:33:46.460Z,9.87
2019-01-05T05:37:19.082Z,10.07
2019-01-05T05:41:03.951Z,11.10
2019-01-05T05:44:42.064Z,10.13
2019-01-05T05:55:32.107Z,11.07
2019-01-05T06:06:15.168Z,12.27
2019-01-05T06:17:39.002Z,13.00
2019-01-05T06:21:14.436Z,12.73
2019-01-05T06:24:57.403Z,11.50
2019-01-05T06:28:47.666Z,10.90
2019-01-05T06:32:34.996Z,11.07
2019-01-05T06:39:49.993Z,11.23
2019-01-05T06:43:38.144Z,10.97
2019-01-05T06:51:06.047Z,11.60
2019-01-05T07:08:01.241Z,11.20
2019-01-05T07:11:29.387Z,11.67
2019-01-05T07:15:12.951Z,12.30
2019-01-05T07:18:44.707Z,11.60
2019-01-05T07:22:16.886Z,11.80
2019-01-05T07:25:45.174Z,13.30
2019-01-05T07:29:24.093Z,12.00
2019-01-05T07:33:16.965Z,12.60
2019-01-05T07:36:50.980Z,12.47
2019-01-05T07:40:18.038Z,13.30
2019-01-05T07:44:09.244Z,13.20
2019-01-05T07:47:46.736Z,12.40
2019-01-05T08:01:41.909Z,14.47
2019-01-05T08:08:32.133Z,15.33
2019-01-05T08:15:42.610Z,16.67
2019-01-05T08:19:06.797Z,15.50
2019-01-05T08:23:03.963Z,16.03
2019-01-05T08:26:39.634Z,16.57
2019-01-05T08:30:15.389Z,17.57
2019-01-05T08:33:45.809Z,17.90
2019-01-05T08:41:10.751Z,15.10
2019-01-05T08:44:44.394Z,15.87
2019-01-05T08:48:14.971Z,16.13
2019-01-05T09:03:02.409Z,15.33
2019-01-05T09:10:09.173Z,15.83
2019-01-05T09:13:59.177Z,15.93
2019-01-05T09:23:24.405Z,13.63
2019-01-05T09:30:29.984Z,12.17
2019-01-05T09:41:07.343Z,11.10
2019-01-05T09:44:33.414Z,10.90
2019-01-05T09:51:48.979Z,10.50
2019-01-05T09:55:32.406Z,9.80
2019-01-05T09:58:57.193Z,11.30
2019-01-05T10:02:46.999Z,9.17
2019-01-05T10:06:40.411Z,7.57
2019-01-05T10:10:20.613Z,8.00
2019-01-05T10:14:00.362Z,7.67
2019-01-05T10:17:40.436Z,7.00
2019-01-05T10:21:34.822Z,5.27
2019-01-05T10:25:41.205Z,6.27
2019-01-05T10:29:28.720Z,5.33
2019-01-05T10:33:19.421Z,4.70
2019-01-05T10:36:46.996Z,5.13
2019-01-05T10:40:44.369Z,3.90
2019-01-05T10:47:15.934Z,4.47
2019-01-05T10:50:42.565Z,4.77
2019-01-05T10:54:08.834Z,5.73
2019-01-05T11:01:18.887Z,4.70
2019-01-05T11:05:05.836Z,5.23
2019-01-05T11:08:47.726Z,5.70
2019-01-05T11:12:33.909Z,4.33
2019-01-05T11:16:12.024Z,6.43
2019-01-05T11:19:58.411Z,6.27
2019-01-05T11:23:50.975Z,5.30
2019-01-05T11:27:30.112Z,5.17
2019-01-05T11:30:56.767Z,6.07
2019-01-05T11:34:25.037Z,4.80
2019-01-05T11:37:49.631Z,4.67
2019-01-05T11:41:22.624Z,4.60
2019-01-05T11:44:54.418Z,4.30
2019-01-05T11:48:28.494Z,4.77
2019-01-05T11:52:05.411Z,4.03
2019-01-05T11:55:46.417Z,4.20
2019-01-05T11:59:39.422Z,4.63
2019-01-05T12:03:04.408Z,4.20
2019-01-05T12:06:24.625Z,4.10
2019-01-05T12:10:12.772Z,3.77
2019-01-05T12:13:39.620Z,3.50
2019-01-05T12:17:11.583Z,4.57
2019-01-05T12:20:40.895Z,4.50
2019-01-05T12:24:15.932Z,3.57
2019-01-05T12:31:32.596Z,3.70
2019-01-05T12:34:56.413Z,3.17
2019-01-05T12:38:47.415Z,3.50
2019-01-05T12:42:18.916Z,2.87
2019-01-05T12:45:41.873Z,3.60
2019-01-05T12:49:20.805Z,3.07
2019-01-05T12:53:13.876Z,2.43
2019-01-05T12:56:34.450Z,2.90
2019-01-05T13:00:00.823Z,3.67
2019-01-05T13:03:17.018Z,3.33
2019-01-05T13:17:23.467Z,2.87
2019-01-05T13:21:10.770Z,3.13
2019-01-05T13:24:47.855Z,2.90
2019-01-05T13:28:42.965Z,3.20
2019-01-05T13:32:10.016Z,3.37
2019-01-05T13:36:08.813Z,3.80
2019-01-05T13:40:06.468Z,4.80
2019-01-05T13:43:27.087Z,2.80
2019-01-05T13:47:19.464Z,2.67
2019-01-05T13:50:45.460Z,2.70
2019-01-05T13:53:55.968Z,3.30
2019-01-05T13:57:13.865Z,3.13
2019-01-05T14:00:19.564Z,3.23
2019-01-05T14:03:10.485Z,3.30
2019-01-05T14:06:20.501Z,3.60
2019-01-05T14:09:27.777Z,4.23
2019-01-05T14:12:25.031Z,4.10
2019-01-05T14:15:26.881Z,5.10
2019-01-05T14:18:23.010Z,5.57
2019-01-05T14:21:24.460Z,7.13
2019-01-05T14:24:30.791Z,7.53
2019-01-05T14:27:23.884Z,6.57
2019-01-05T14:30:15.111Z,5.70
2019-01-05T14:33:19.231Z,5.33
2019-01-05T14:36:12.063Z,3.23
2019-01-05T14:39:21.094Z,3.17
2019-01-05T14:42:07.496Z,8.53
2019-01-05T14:48:07.486Z,4.40
2019-01-05T14:51:06.015Z,4.57
2019-01-05T14:57:46.816Z,3.10
2019-01-05T15:00:38.020Z,4.37
2019-01-05T15:03:47.870Z,3.60
2019-01-05T15:06:55.494Z,3.57
2019-01-05T15:09:59.484Z,3.67
2019-01-05T15:12:53.486Z,3.80
2019-01-05T15:25:52.721Z,5.77
2019-01-05T15:28:54.993Z,4.33
2019-01-05T15:38:32.024Z,6.37
2019-01-05T15:41:21.079Z,5.50
2019-01-05T15:44:27.856Z,5.10
2019-01-05T15:51:08.497Z,4.00
2019-01-05T15:54:04.286Z,4.10
2019-01-05T16:00:34.723Z,3.90
2019-01-05T16:03:33.713Z,4.07
2019-01-05T16:06:37.009Z,3.77
2019-01-05T16:09:55.868Z,4.27
2019-01-05T16:16:25.396Z,4.40
2019-01-05T16:19:20.437Z,4.03
2019-01-05T16:22:13.968Z,4.23
2019-01-05T16:25:04.994Z,4.10
2019-01-05T16:28:00.080Z,3.93
2019-01-05T16:30:57.978Z,4.10
2019-01-05T16:37:20.471Z,3.83
2019-01-05T16:40:21.049Z,3.90
2019-01-05T16:43:13.514Z,3.70
2019-01-05T16:46:13.756Z,4.10
2019-01-05T16:49:09.545Z,3.67
2019-01-05T16:59:15.023Z,3.93
2019-01-05T17:02:14.016Z,3.63
2019-01-05T17:05:14.856Z,4.90
2019-01-05T17:08:22.687Z,4.60
2019-01-05T17:11:04.660Z,5.50
2019-01-05T17:13:58.662Z,5.27
2019-01-05T17:16:49.741Z,5.37
2019-01-05T17:23:44.052Z,5.67
2019-01-05T17:29:51.544Z,5.50
2019-01-05T17:36:23.960Z,5.70
2019-01-05T17:42:43.772Z,5.10
2019-01-05T17:45:42.144Z,4.93
2019-01-05T17:52:16.553Z,5.30
2019-01-05T17:55:11.081Z,4.80
2019-01-05T18:01:33.549Z,5.00
2019-01-05T18:04:23.551Z,5.63
2019-01-05T18:07:20.779Z,5.37
2019-01-05T18:10:27.762Z,5.47
2019-01-05T18:13:33.322Z,5.53
2019-01-05T18:16:47.258Z,5.60
2019-01-05T18:19:34.790Z,6.57
2019-01-05T18:22:48.584Z,7.10
2019-01-05T18:29:28.657Z,7.80
2019-01-05T18:32:23.501Z,6.80
2019-01-05T18:35:23.636Z,6.17
2019-01-05T18:38:35.418Z,7.10
2019-01-05T18:45:01.675Z,8.37
2019-01-05T18:47:54.399Z,8.50
2019-01-05T18:50:46.076Z,8.50
2019-01-05T18:57:25.194Z,18.10
2019-01-05T19:00:15.069Z,12.90
2019-01-05T19:03:11.315Z,9.00
2019-01-05T19:06:22.012Z,8.73
2019-01-05T19:09:23.767Z,8.23
2019-01-05T19:12:16.073Z,7.27
2019-01-05T19:18:34.829Z,11.00
2019-01-05T19:21:29.255Z,7.40
2019-01-05T19:27:58.990Z,7.77
2019-01-05T19:31:03.293Z,7.77
2019-01-05T19:33:57.625Z,6.43
2019-01-05T19:36:52.785Z,7.20
2019-01-05T19:40:00.302Z,6.90
2019-01-05T19:42:59.275Z,7.37
2019-01-05T19:45:53.798Z,9.00
2019-01-05T19:49:00.129Z,8.60
2019-01-05T19:51:50.775Z,8.63
2019-01-05T19:55:08.976Z,7.80
2019-01-05T19:58:13.090Z,8.37
2019-01-05T20:01:13.314Z,10.50
2019-01-05T20:04:15.180Z,9.83
2019-01-05T20:07:15.196Z,9.27
2019-01-05T20:10:19.310Z,11.03
2019-01-05T20:13:10.126Z,9.17
2019-01-05T20:16:14.042Z,11.60
2019-01-05T20:19:00.116Z,10.40
2019-01-05T20:21:58.827Z,9.00
2019-01-05T20:28:21.472Z,7.60
2019-01-05T20:31:31.898Z,7.10
2019-01-05T20:34:38.778Z,6.67
2019-01-05T20:37:30.944Z,6.53
2019-01-05T20:40:38.438Z,7.00
2019-01-05T20:43:49.764Z,6.27
2019-01-05T20:46:51.821Z,5.70
2019-01-05T20:49:42.498Z,5.50
2019-01-05T20:56:27.592Z,4.87
2019-01-05T20:59:20.647Z,5.03
2019-01-05T21:02:22.509Z,5.80
2019-01-05T21:05:27.825Z,4.93
2019-01-05T21:11:55.010Z,5.77
2019-01-05T21:14:50.866Z,7.40
2019-01-05T21:17:54.033Z,5.80
2019-01-05T21:20:52.731Z,5.70
2019-01-05T21:24:07.226Z,5.83
2019-01-05T21:27:05.679Z,6.20
2019-01-05T21:33:47.317Z,5.40
2019-01-05T21:36:39.519Z,5.17
2019-01-05T21:39:38.514Z,5.40
2019-01-05T21:42:44.457Z,5.20
2019-01-05T21:45:58.315Z,5.23
2019-01-05T21:48:56.798Z,6.10
2019-01-05T21:51:48.831Z,5.53
2019-01-05T21:54:48.422Z,6.40
2019-01-05T21:57:53.783Z,5.07
2019-01-05T22:01:08.442Z,6.20
2019-01-05T22:03:47.317Z,5.87
2019-01-05T22:06:37.317Z,5.57
2019-01-05T22:09:35.312Z,6.33
2019-01-05T22:15:24.820Z,6.00
2019-01-05T22:22:08.470Z,5.43
2019-01-05T22:25:15.319Z,5.47
2019-01-05T22:28:07.327Z,6.03
2019-01-05T22:31:02.315Z,5.30
2019-01-05T22:34:05.688Z,4.97
2019-01-05T22:37:01.815Z,5.10
2019-01-05T22:43:59.406Z,5.07
2019-01-05T22:46:46.376Z,5.87
2019-01-05T22:49:35.273Z,5.47
2019-01-05T22:52:36.531Z,5.97
2019-01-05T23:01:51.527Z,4.73
2019-01-05T23:08:24.539Z,5.53
2019-01-05T23:11:18.828Z,4.70
2019-01-05T23:17:56.762Z,5.37
2019-01-05T23:21:13.573Z,5.50
2019-01-05T23:24:08.872Z,5.47
2019-01-05T23:27:09.712Z,5.10
2019-01-05T23:33:48.106Z,5.17
2019-01-05T23:36:38.234Z,5.70
2019-01-05T23:39:46.651Z,5.87
2019-01-05T23:42:39.706Z,5.70
2019-01-05T23:45:44.025Z,5.40
2019-01-05T23:48:48.551Z,5.73
2019-01-05T23:51:42.631Z,5.50
2019-01-05T23:54:41.325Z,5.53
2019-01-05T23:57:41.664Z,5.67
